Time;durP1;ratioP1;P1;durP2;ratioP2;P2;SDS_P1;SDS_P2;PMS_P1;PMS_P2;Temp;Humidity;BMP_temperature;BMP_pressure;BME280_temperature;BME280_humidity;BME280_pressure;Samples;Min_cycle;Max_cycle;Signal;HPM_P1;HPM_P2
2022/10/05 00:01:23;;;;;;;4.78;3.42;;;15.90;99.90;;;;;;4974698;28;20194;-78
2022/10/05 00:03:49;;;;;;;4.60;3.25;;;15.90;99.90;;;;;;4989377;28;20046;-79
2022/10/05 00:06:15;;;;;;;6.15;3.80;;;15.90;99.90;;;;;;4973903;28;20027;-77
2022/10/05 00:08:42;;;;;;;4.93;3.05;;;15.90;99.90;;;;;;4959438;28;20489;-78
2022/10/05 00:11:08;;;;;;;4.35;2.97;;;15.90;99.90;;;;;;4976092;28;20034;-79
2022/10/05 00:13:34;;;;;;;3.95;2.92;;;15.90;99.90;;;;;;4976970;28;20023;-78
2022/10/05 00:16:18;;;;;;;5.72;3.65;;;15.80;99.90;;;;;;4977277;28;20142;-78
2022/10/05 00:18:52;;;;;;;6.70;3.65;;;15.80;99.90;;;;;;4976874;28;20050;-78
2022/10/05 00:21:21;;;;;;;5.90;3.88;;;15.80;99.90;;;;;;4977925;28;20533;-79
2022/10/05 00:23:47;;;;;;;5.63;3.30;;;15.80;99.90;;;;;;4977026;28;20019;-79
2022/10/05 00:26:18;;;;;;;5.18;3.90;;;15.70;99.90;;;;;;4977545;28;20031;-79
2022/10/05 00:28:43;;;;;;;6.07;3.38;;;15.70;99.90;;;;;;4976682;28;20038;-79
2022/10/05 00:31:20;;;;;;;5.82;3.78;;;15.70;99.90;;;;;;4978149;28;20019;-79
2022/10/05 00:33:47;;;;;;;5.75;3.30;;;15.70;99.90;;;;;;4961777;28;20101;-79
2022/10/05 00:36:13;;;;;;;4.68;3.28;;;15.70;99.90;;;;;;4972430;28;20538;-78
2022/10/05 00:38:39;;;;;;;4.00;2.90;;;15.70;99.90;;;;;;4961792;28;20026;-78
2022/10/05 00:41:08;;;;;;;4.40;2.97;;;15.70;99.90;;;;;;4963598;28;20463;-79
2022/10/05 00:43:48;;;;;;;4.75;3.05;;;15.70;99.90;;;;;;4971207;28;20054;-79
2022/10/05 00:46:21;;;;;;;4.53;3.47;;;15.70;99.90;;;;;;4970923;28;20050;-79
2022/10/05 00:49:17;;;;;;;6.00;3.00;;;15.70;99.90;;;;;;4980085;28;20038;-79
2022/10/05 00:51:55;;;;;;;4.55;3.30;;;15.70;99.90;;;;;;4974314;28;20092;-79
2022/10/05 00:55:02;;;;;;;4.78;3.03;;;15.70;99.90;;;;;;4968568;28;20015;-79
2022/10/05 00:57:34;;;;;;;4.57;2.80;;;15.70;99.90;;;;;;4948256;28;20042;-79
2022/10/05 01:00:14;;;;;;;4.50;2.97;;;15.70;99.90;;;;;;4976403;28;20047;-78
2022/10/05 01:03:03;;;;;;;4.90;3.03;;;15.70;99.90;;;;;;4976856;28;20027;-79
2022/10/05 01:05:48;;;;;;;4.53;2.58;;;15.70;99.90;;;;;;4996163;28;20023;-78
2022/10/05 01:08:40;;;;;;;4.95;2.47;;;15.70;99.90;;;;;;4998931;28;20015;-78
2022/10/05 01:11:06;;;;;;;6.45;3.60;;;15.70;99.90;;;;;;4959071;28;20038;-79
2022/10/05 01:13:37;;;;;;;4.88;3.53;;;15.70;99.90;;;;;;4977538;28;20027;-79
2022/10/05 01:16:09;;;;;;;4.53;3.10;;;15.70;99.90;;;;;;4977125;28;20502;-78
2022/10/05 01:18:41;;;;;;;4.78;3.35;;;15.70;99.90;;;;;;4976515;28;20062;-79
2022/10/05 01:21:18;;;;;;;4.45;3.00;;;15.70;99.90;;;;;;4979045;28;20059;-79
2022/10/05 01:24:08;;;;;;;4.82;3.40;;;15.70;99.90;;;;;;4992446;28;20125;-79
2022/10/05 01:27:06;;;;;;;6.03;3.25;;;15.70;99.90;;;;;;4992419;28;20382;-78
2022/10/05 01:29:54;;;;;;;5.05;3.20;;;15.60;99.90;;;;;;4955986;28;20039;-78
2022/10/05 01:32:33;;;;;;;4.90;3.83;;;15.60;99.90;;;;;;4975900;28;20050;-79
2022/10/05 01:35:14;;;;;;;5.57;3.50;;;15.60;99.90;;;;;;4975967;28;20484;-78
2022/10/05 01:38:00;;;;;;;4.88;3.33;;;15.60;99.90;;;;;;4977101;28;20404;-79
2022/10/05 01:40:34;;;;;;;5.13;3.25;;;15.50;99.90;;;;;;4975848;28;20050;-79
2022/10/05 01:43:23;;;;;;;4.65;3.40;;;15.60;99.90;;;;;;4974234;28;20038;-79
2022/10/05 01:45:59;;;;;;;4.82;3.20;;;15.60;99.90;;;;;;4969523;28;20038;-78
2022/10/05 01:48:38;;;;;;;4.38;2.88;;;15.50;99.90;;;;;;4962065;28;20117;-79
2022/10/05 01:51:38;;;;;;;4.40;3.60;;;15.60;99.90;;;;;;4975460;28;20030;-79
2022/10/05 01:54:35;;;;;;;5.18;3.33;;;15.60;99.90;;;;;;4979436;28;20035;-79
2022/10/05 01:57:16;;;;;;;6.28;4.05;;;15.60;99.90;;;;;;4962710;28;20019;-79
2022/10/05 01:59:52;;;;;;;6.38;4.00;;;15.60;99.90;;;;;;4976512;28;20442;-79
2022/10/05 02:02:22;;;;;;;5.93;4.00;;;15.50;99.90;;;;;;4975269;28;20031;-79
2022/10/05 02:05:09;;;;;;;5.25;4.53;;;15.50;99.90;;;;;;4974813;28;20161;-79
2022/10/05 02:07:53;;;;;;;6.60;4.78;;;15.50;99.90;;;;;;4976202;28;20038;-78
2022/10/05 02:10:41;;;;;;;7.03;5.50;;;15.40;99.90;;;;;;4975103;28;20023;-79
2022/10/05 02:13:26;;;;;;;7.72;5.50;;;15.40;99.90;;;;;;4976507;28;20027;-79
2022/10/05 02:16:02;;;;;;;8.07;5.97;;;15.30;99.90;;;;;;4979266;28;20138;-79
2022/10/05 02:18:50;;;;;;;7.82;6.10;;;15.30;99.90;;;;;;4974733;28;20054;-80
2022/10/05 02:21:17;;;;;;;6.60;5.25;;;15.30;99.90;;;;;;4976470;28;20031;-80
2022/10/05 02:23:45;;;;;;;6.28;4.72;;;15.20;99.90;;;;;;4975903;28;20027;-79
2022/10/05 02:26:11;;;;;;;7.45;5.25;;;15.20;99.90;;;;;;4975892;28;20077;-80
2022/10/05 02:28:58;;;;;;;6.30;4.72;;;15.20;99.90;;;;;;4974667;28;20362;-80
2022/10/05 02:31:46;;;;;;;9.32;5.85;;;15.20;99.90;;;;;;4975573;28;20029;-80
2022/10/05 02:34:23;;;;;;;7.40;5.07;;;15.10;99.90;;;;;;4974793;28;20030;-80
2022/10/05 02:37:24;;;;;;;9.15;5.75;;;15.10;99.90;;;;;;4975878;28;20119;-80
2022/10/05 02:40:11;;;;;;;9.18;6.15;;;15.10;99.90;;;;;;4969544;28;20034;-80
2022/10/05 02:42:55;;;;;;;8.90;6.32;;;15.10;99.90;;;;;;4974403;28;20030;-80
2022/10/05 02:45:53;;;;;;;6.82;5.30;;;15.00;99.90;;;;;;4975789;28;20027;-80
2022/10/05 02:48:34;;;;;;;8.25;6.00;;;15.00;99.90;;;;;;4952715;28;20050;-80
2022/10/05 02:51:35;;;;;;;8.65;6.18;;;15.00;99.90;;;;;;4974548;28;20022;-80
2022/10/05 02:54:43;;;;;;;8.00;4.93;;;14.90;99.90;;;;;;4981214;28;20026;-80
2022/10/05 02:57:26;;;;;;;8.30;5.45;;;14.90;99.90;;;;;;4988302;28;20133;-78
2022/10/05 03:00:18;;;;;;;8.90;4.97;;;14.90;99.90;;;;;;4992448;28;20055;-79
2022/10/05 03:02:57;;;;;;;6.80;5.03;;;14.80;99.90;;;;;;4986657;28;20290;-79
2022/10/05 03:05:42;;;;;;;8.38;5.53;;;14.80;99.90;;;;;;4975078;28;20027;-79
2022/10/05 03:08:17;;;;;;;8.38;5.22;;;14.80;99.90;;;;;;4975551;28;20122;-79
2022/10/05 03:10:55;;;;;;;6.70;5.35;;;14.80;99.90;;;;;;4975180;28;20030;-79
2022/10/05 03:13:57;;;;;;;6.30;4.63;;;14.80;99.90;;;;;;4975878;28;20019;-80
2022/10/05 03:16:37;;;;;;;6.93;4.63;;;14.90;99.90;;;;;;4958841;28;20035;-79
2022/10/05 03:19:24;;;;;;;7.57;4.50;;;14.90;99.90;;;;;;4974710;28;20030;-79
2022/10/05 03:21:56;;;;;;;6.20;4.60;;;14.90;99.90;;;;;;4990448;28;20034;-79
2022/10/05 03:24:34;;;;;;;6.68;5.18;;;14.90;99.90;;;;;;4974157;28;20382;-80
2022/10/05 03:27:05;;;;;;;7.80;4.82;;;15.00;99.90;;;;;;4974215;28;20030;-79
2022/10/05 03:29:52;;;;;;;6.68;5.30;;;15.00;99.90;;;;;;4975656;28;20466;-79
2022/10/05 03:32:23;;;;;;;6.93;4.75;;;15.10;99.90;;;;;;4973792;28;20023;-79
2022/10/05 03:34:58;;;;;;;6.75;5.13;;;15.10;99.90;;;;;;4973918;28;20026;-80
2022/10/05 03:37:27;;;;;;;7.20;5.43;;;15.00;99.90;;;;;;4973709;28;20494;-79
2022/10/05 03:40:07;;;;;;;7.53;5.45;;;15.10;99.90;;;;;;4973952;28;20085;-80
2022/10/05 03:43:02;;;;;;;6.93;5.28;;;15.10;99.90;;;;;;4970336;28;20521;-80
2022/10/05 03:45:45;;;;;;;6.80;5.13;;;15.10;99.90;;;;;;4963576;28;20390;-80
2022/10/05 03:48:18;;;;;;;7.63;4.70;;;15.10;99.90;;;;;;4974705;28;20027;-79
2022/10/05 03:50:59;;;;;;;6.75;4.50;;;15.10;99.90;;;;;;4973856;28;20034;-79
2022/10/05 03:53:31;;;;;;;5.97;4.53;;;15.10;99.90;;;;;;4974087;28;20165;-79
2022/10/05 03:56:11;;;;;;;7.63;5.30;;;15.10;99.90;;;;;;4975311;28;20034;-79
2022/10/05 03:58:55;;;;;;;7.75;4.75;;;15.10;99.90;;;;;;4973034;28;20074;-80
2022/10/05 04:01:29;;;;;;;6.15;4.13;;;15.10;99.90;;;;;;4973328;28;20039;-79
2022/10/05 04:04:03;;;;;;;6.95;4.55;;;15.10;99.90;;;;;;4973621;28;20073;-79
2022/10/05 04:06:47;;;;;;;6.00;4.47;;;15.10;99.90;;;;;;4973511;28;20458;-79
2022/10/05 04:09:27;;;;;;;7.75;5.20;;;15.10;99.90;;;;;;4973683;28;20033;-79
2022/10/05 04:12:07;;;;;;;6.38;4.80;;;15.10;99.90;;;;;;4973312;28;20019;-79
2022/10/05 04:15:08;;;;;;;6.60;4.75;;;15.10;99.90;;;;;;4972958;28;20038;-78
2022/10/05 04:17:49;;;;;;;8.30;5.18;;;15.10;99.90;;;;;;4957984;28;20077;-79
2022/10/05 04:20:22;;;;;;;7.38;4.35;;;15.10;99.90;;;;;;4974355;28;20074;-79
2022/10/05 04:23:00;;;;;;;;;;;15.10;99.90;;;;;;4989917;28;20027;-79
2022/10/05 04:25:33;;;;;;;6.10;4.25;;;15.10;99.90;;;;;;4989128;28;19917;-80
2022/10/05 04:28:16;;;;;;;8.02;4.65;;;15.10;99.90;;;;;;4973297;28;20015;-79
2022/10/05 04:30:47;;;;;;;5.53;4.07;;;15.10;99.90;;;;;;4973077;28;20443;-79
2022/10/05 04:33:14;;;;;;;5.45;4.28;;;15.10;99.90;;;;;;4973244;28;20023;-80
2022/10/05 04:36:08;;;;;;;9.20;5.55;;;15.10;99.90;;;;;;4974746;28;20046;-80
2022/10/05 04:38:51;;;;;;;7.07;4.85;;;15.10;99.90;;;;;;4974305;28;20106;-80
2022/10/05 04:41:38;;;;;;;6.88;4.35;;;15.10;99.90;;;;;;4962324;28;20110;-79
2022/10/05 04:44:28;;;;;;;8.00;4.32;;;15.10;99.90;;;;;;4973216;28;20037;-79
2022/10/05 04:47:35;;;;;;;8.15;5.10;;;15.10;99.90;;;;;;4962611;28;20023;-79
2022/10/05 04:50:16;;;;;;;7.43;5.13;;;15.10;99.90;;;;;;4976929;28;20031;-78
2022/10/05 04:52:54;;;;;;;6.43;4.30;;;15.10;99.90;;;;;;4988878;28;20042;-78
2022/10/05 04:55:54;;;;;;;5.38;3.85;;;15.10;99.90;;;;;;4988957;28;20031;-78
2022/10/05 04:58:50;;;;;;;6.70;4.20;;;15.10;99.90;;;;;;4992730;28;20015;-79
2022/10/05 05:01:37;;;;;;;6.22;4.53;;;15.10;99.90;;;;;;4977961;28;20050;-78
2022/10/05 05:04:06;;;;;;;5.97;4.68;;;15.10;99.90;;;;;;4981228;28;20113;-80
2022/10/05 05:06:42;;;;;;;7.00;5.55;;;15.10;99.90;;;;;;4975097;28;20023;-79
2022/10/05 05:10:13;;;;;;;7.07;5.38;;;15.10;99.90;;;;;;4976575;28;20344;-78
2022/10/05 05:13:06;;;;;;;6.72;4.47;;;15.10;99.90;;;;;;4935894;29;20396;-80
2022/10/05 05:16:09;;;;;;;6.63;5.18;;;15.10;99.90;;;;;;4975317;28;20022;-80
2022/10/05 05:19:01;;;;;;;7.03;5.05;;;15.10;99.90;;;;;;4974970;28;20073;-80
2022/10/05 05:21:42;;;;;;;7.05;5.22;;;15.10;99.90;;;;;;4974100;28;20018;-79
2022/10/05 05:24:42;;;;;;;6.63;5.07;;;15.10;99.90;;;;;;4975061;28;20026;-79
2022/10/05 05:27:08;;;;;;;8.38;5.57;;;15.00;99.90;;;;;;4974441;28;20049;-80
2022/10/05 05:29:37;;;;;;;7.38;5.90;;;15.00;99.90;;;;;;4972981;28;20027;-80
2022/10/05 05:32:05;;;;;;;7.10;5.18;;;15.00;99.90;;;;;;4974072;28;20360;-79
2022/10/05 05:34:58;;;;;;;8.30;6.25;;;15.00;99.90;;;;;;4974083;28;20022;-79
2022/10/05 05:37:37;;;;;;;8.00;6.07;;;15.00;99.90;;;;;;4974184;28;20479;-79
2022/10/05 05:40:14;;;;;;;7.22;5.00;;;15.00;99.90;;;;;;4973730;28;20042;-80
2022/10/05 05:43:00;;;;;;;7.03;5.57;;;15.00;99.90;;;;;;4974228;28;20015;-79
2022/10/05 05:45:40;;;;;;;8.77;5.97;;;15.00;99.90;;;;;;4965482;28;20054;-79
2022/10/05 05:48:26;;;;;;;9.05;5.78;;;15.00;99.90;;;;;;4974606;28;20093;-79
2022/10/05 05:51:23;;;;;;;8.05;5.45;;;15.00;99.90;;;;;;4979392;28;20055;-80
2022/10/05 05:54:14;;;;;;;8.00;5.15;;;15.00;99.90;;;;;;4968192;28;20054;-79
2022/10/05 05:56:57;;;;;;;6.43;4.90;;;15.00;99.90;;;;;;4974581;28;20463;-79
2022/10/05 05:59:38;;;;;;;7.28;4.63;;;15.00;99.90;;;;;;4972028;28;20058;-79
2022/10/05 06:02:11;;;;;;;7.75;4.22;;;14.90;99.90;;;;;;4974829;28;20023;-80
2022/10/05 06:04:51;;;;;;;7.32;4.57;;;15.00;99.90;;;;;;4958619;28;20030;-79
2022/10/05 06:07:24;;;;;;;6.18;4.80;;;15.00;99.90;;;;;;4988405;28;20019;-80
2022/10/05 06:09:56;;;;;;;5.55;4.20;;;15.00;99.90;;;;;;4976465;28;20102;-79
2022/10/05 06:12:30;;;;;;;5.88;4.53;;;15.00;99.90;;;;;;4974990;28;20023;-79
2022/10/05 06:15:02;;;;;;;6.13;4.78;;;15.00;99.90;;;;;;4974598;28;20039;-79
2022/10/05 06:17:49;;;;;;;8.23;5.15;;;15.00;99.90;;;;;;4974081;28;20533;-80
2022/10/05 06:20:30;;;;;;;7.22;5.60;;;15.00;99.90;;;;;;4975756;28;20023;-79
2022/10/05 06:23:03;;;;;;;5.75;4.35;;;15.00;99.90;;;;;;4965137;28;20081;-79
2022/10/05 06:25:51;;;;;;;5.75;4.20;;;15.10;99.90;;;;;;4974716;28;20074;-78
2022/10/05 06:28:18;;;;;;;6.68;3.88;;;15.10;99.90;;;;;;4980169;28;20027;-78
2022/10/05 06:31:02;;;;;;;5.90;4.25;;;15.00;99.90;;;;;;4971265;28;20530;-78
2022/10/05 06:33:49;;;;;;;5.53;3.90;;;15.10;99.90;;;;;;4973853;28;20085;-79
2022/10/05 06:36:26;;;;;;;5.22;3.25;;;15.10;99.90;;;;;;4973884;28;20030;-78
2022/10/05 06:39:00;;;;;;;6.03;4.38;;;15.10;99.90;;;;;;4981265;28;20023;-78
2022/10/05 06:42:05;;;;;;;6.25;3.50;;;15.10;99.90;;;;;;4995096;28;20062;-77
2022/10/05 06:44:43;;;;;;;3.97;2.85;;;15.10;99.90;;;;;;4975800;28;20476;-79
2022/10/05 06:47:34;;;;;;;4.93;3.40;;;15.10;99.90;;;;;;4976551;28;20031;-78
2022/10/05 06:50:14;;;;;;;5.78;4.00;;;15.10;99.90;;;;;;4974144;28;20118;-78
2022/10/05 06:53:11;;;;;;;5.07;3.00;;;15.10;99.90;;;;;;4975640;28;20470;-77
2022/10/05 06:55:37;;;;;;;13.63;4.03;;;15.10;99.90;;;;;;4975007;28;20022;-78
2022/10/05 06:58:28;;;;;;;13.93;4.10;;;15.20;99.90;;;;;;4974893;28;20081;-79
2022/10/05 07:01:22;;;;;;;7.05;4.38;;;15.20;99.90;;;;;;4969900;28;20074;-79
2022/10/05 07:04:34;;;;;;;6.28;3.65;;;15.20;99.90;;;;;;4973687;28;20023;-78
2022/10/05 07:07:13;;;;;;;5.60;3.35;;;15.20;99.90;;;;;;4973664;28;20051;-78
2022/10/05 07:09:58;;;;;;;4.53;3.10;;;15.20;99.90;;;;;;4973940;28;20031;-78
2022/10/05 07:12:44;;;;;;;6.65;3.67;;;15.30;99.90;;;;;;4988660;28;20050;-78
2022/10/05 07:15:44;;;;;;;4.60;3.08;;;15.30;99.90;;;;;;4989920;28;20390;-78
2022/10/05 07:18:45;;;;;;;5.68;3.97;;;15.30;99.90;;;;;;4972780;28;20477;-78
2022/10/05 07:21:48;;;;;;;5.38;3.67;;;15.30;99.90;;;;;;4964916;28;20085;-78
2022/10/05 07:24:19;;;;;;;6.25;3.70;;;15.40;99.90;;;;;;4972427;28;20553;-77
2022/10/05 07:27:09;;;;;;;6.22;3.15;;;15.30;99.90;;;;;;4974712;28;20031;-77
2022/10/05 07:29:58;;;;;;;5.35;2.67;;;15.40;99.90;;;;;;4986956;28;20360;-79
2022/10/05 07:32:51;;;;;;;5.45;2.92;;;15.40;99.90;;;;;;4972959;28;20027;-79
2022/10/05 07:38:26;;;;;;;4.82;3.40;;;15.40;99.90;;;;;;4973166;28;20081;-78
2022/10/05 07:41:01;;;;;;;5.43;3.70;;;15.50;99.90;;;;;;4971554;28;20022;-79
2022/10/05 07:43:29;;;;;;;4.18;3.25;;;15.50;99.90;;;;;;4973501;28;20035;-79
2022/10/05 07:46:13;;;;;;;5.47;3.08;;;15.50;99.90;;;;;;4986990;28;20027;-79
2022/10/05 07:49:05;;;;;;;4.82;3.08;;;15.60;99.90;;;;;;4971625;28;20022;-80
2022/10/05 07:52:16;;;;;;;4.43;3.08;;;15.60;99.90;;;;;;4973800;28;20027;-79
2022/10/05 07:54:59;;;;;;;4.90;3.40;;;15.60;99.90;;;;;;4917675;29;20027;-78
2022/10/05 07:57:46;;;;;;;4.82;3.15;;;15.60;99.90;;;;;;4933576;29;20048;-78
2022/10/05 08:00:20;;;;;;;4.40;2.83;;;15.60;99.90;;;;;;4917263;29;20056;-78
2022/10/05 08:02:57;;;;;;;4.60;3.10;;;15.60;99.90;;;;;;4944942;28;20144;-78
2022/10/05 08:05:31;;;;;;;4.55;3.28;;;15.70;99.90;;;;;;4973768;28;20019;-78
2022/10/05 08:08:12;;;;;;;5.55;3.25;;;15.70;99.90;;;;;;4971417;28;20023;-78
2022/10/05 08:10:53;;;;;;;4.40;3.20;;;15.70;99.90;;;;;;4987500;28;20054;-78
2022/10/05 08:13:38;;;;;;;5.25;3.70;;;15.70;99.90;;;;;;4972751;28;20035;-79
2022/10/05 08:16:13;;;;;;;8.35;3.63;;;15.70;99.90;;;;;;4987585;28;20018;-78
2022/10/05 08:19:00;;;;;;;4.78;3.30;;;15.80;99.90;;;;;;4972526;28;20051;-80
2022/10/05 08:21:38;;;;;;;4.45;2.88;;;15.80;99.90;;;;;;4970046;28;20117;-78
2022/10/05 08:24:29;;;;;;;3.03;2.13;;;15.90;99.90;;;;;;4973123;28;20388;-78
2022/10/05 08:27:02;;;;;;;3.70;2.20;;;16.00;99.90;;;;;;4972562;28;20018;-78
2022/10/05 08:29:34;;;;;;;3.67;2.35;;;16.10;99.90;;;;;;4975135;28;20034;-79
2022/10/05 08:32:10;;;;;;;4.32;2.40;;;16.20;99.90;;;;;;4997242;28;20026;-80
2022/10/05 08:35:16;;;;;;;4.10;2.33;;;16.20;99.90;;;;;;4999440;28;20034;-79
2022/10/05 08:37:44;;;;;;;4.60;2.25;;;16.20;99.90;;;;;;4974159;28;20025;-78
2022/10/05 08:40:40;;;;;;;4.18;2.53;;;16.30;99.90;;;;;;4975792;28;20031;-78
2022/10/05 08:43:54;;;;;;;4.07;2.25;;;16.40;99.90;;;;;;4988626;28;20410;-78
2022/10/05 08:46:42;;;;;;;5.07;2.50;;;16.50;99.90;;;;;;4972789;28;20027;-78
2022/10/05 08:49:40;;;;;;;2.83;2.00;;;16.60;99.90;;;;;;4976217;28;20450;-79
2022/10/05 08:52:23;;;;;;;2.65;1.80;;;16.70;99.90;;;;;;4943515;28;20126;-79
2022/10/05 08:55:27;;;;;;;4.05;2.25;;;16.80;99.90;;;;;;4975414;28;20470;-79
2022/10/05 08:58:50;;;;;;;2.67;1.88;;;16.80;99.90;;;;;;4977441;28;20027;-79
2022/10/05 09:01:44;;;;;;;4.55;2.22;;;16.90;99.90;;;;;;4933101;29;20388;-79
2022/10/05 09:04:51;;;;;;;8.50;2.60;;;17.00;99.90;;;;;;4934446;29;20040;-79
2022/10/05 09:07:42;;;;;;;4.63;2.17;;;17.00;99.90;;;;;;4933939;28;20042;-80
2022/10/05 09:10:40;;;;;;;4.28;2.47;;;17.10;99.90;;;;;;4972677;28;20450;-80
2022/10/05 09:13:19;;;;;;;3.67;1.90;;;17.10;99.90;;;;;;4975621;28;20027;-79
2022/10/05 09:16:12;;;;;;;2.72;1.83;;;17.30;99.90;;;;;;4990567;28;20076;-79
2022/10/05 09:18:58;;;;;;;5.63;2.35;;;17.40;99.90;;;;;;4974694;28;20055;-80
2022/10/05 09:21:33;;;;;;;4.95;2.35;;;17.60;99.90;;;;;;4973686;28;20039;-79
2022/10/05 09:24:21;;;;;;;3.45;2.40;;;17.70;99.90;;;;;;4974395;28;20054;-78
2022/10/05 09:27:10;;;;;;;4.55;2.60;;;17.90;99.90;;;;;;4975569;28;20030;-79
2022/10/05 09:30:04;;;;;;;4.03;2.70;;;17.90;99.90;;;;;;4975216;28;20070;-79
2022/10/05 09:33:08;;;;;;;3.17;2.00;;;17.90;99.90;;;;;;4976777;28;20042;-79
2022/10/05 09:35:43;;;;;;;3.17;2.05;;;18.00;99.90;;;;;;4974803;28;20027;-78
2022/10/05 09:38:43;;;;;;;3.70;1.83;;;18.10;99.90;;;;;;4991249;28;20053;-79
2022/10/05 09:41:13;;;;;;;4.05;2.47;;;18.30;99.90;;;;;;4989734;28;20037;-79
2022/10/05 09:43:51;;;;;;;4.50;2.20;;;18.30;99.90;;;;;;4973267;28;20067;-80
2022/10/05 09:46:39;;;;;;;2.63;2.00;;;18.30;99.90;;;;;;4974085;28;20210;-81
2022/10/05 09:49:59;;;;;;;3.10;2.10;;;18.40;99.90;;;;;;4989869;28;20466;-79
2022/10/05 09:52:40;;;;;;;4.78;1.90;;;18.40;99.90;;;;;;4938356;29;20118;-79
2022/10/05 09:55:29;;;;;;;3.15;2.15;;;18.50;99.90;;;;;;4977101;28;20027;-80
2022/10/05 09:58:33;;;;;;;5.80;2.40;;;18.50;99.90;;;;;;4970721;28;20122;-81
2022/10/05 10:01:30;;;;;;;3.63;2.33;;;18.40;99.90;;;;;;4970391;28;20086;-80
2022/10/05 10:04:08;;;;;;;6.07;2.30;;;18.40;99.90;;;;;;4984604;28;20031;-80
2022/10/05 10:06:53;;;;;;;3.70;2.17;;;18.50;99.90;;;;;;4969584;28;20026;-81
2022/10/05 10:10:00;;;;;;;4.53;2.10;;;18.70;99.90;;;;;;4970240;28;20039;-82
2022/10/05 10:12:56;;;;;;;3.95;2.30;;;18.80;99.90;;;;;;4931312;29;20558;-81
2022/10/05 10:15:59;;;;;;;4.00;2.13;;;19.00;99.90;;;;;;4966673;28;20047;-81
2022/10/05 10:19:16;;;;;;;3.25;1.90;;;19.20;99.90;;;;;;4970601;28;20026;-80
2022/10/05 10:22:34;;;;;;;3.78;1.88;;;19.30;99.90;;;;;;4960894;28;20046;-80
2022/10/05 10:25:36;;;;;;;3.20;1.63;;;19.70;99.90;;;;;;4968279;28;20046;-78
2022/10/05 10:28:40;;;;;;;7.20;2.45;;;20.20;99.90;;;;;;5000838;28;20129;-80
2022/10/05 10:31:21;;;;;;;;;;;20.70;99.90;;;;;;4987121;28;20096;-80
2022/10/05 10:34:15;;;;;;;3.95;1.85;;;21.30;99.90;;;;;;4972174;28;19941;-81
2022/10/05 10:37:00;;;;;;;;;;;21.80;99.90;;;;;;4986220;28;20058;-80
2022/10/05 10:39:59;;;;;;;2.25;1.45;;;22.10;99.90;;;;;;4970455;28;19913;-80
2022/10/05 10:43:04;;;;;;;7.78;2.33;;;21.90;99.90;;;;;;4971393;28;20050;-80
2022/10/05 10:45:49;;;;;;;4.35;2.22;;;21.40;99.90;;;;;;4962020;28;20035;-79
2022/10/05 10:48:18;;;;;;;3.88;2.13;;;20.90;99.90;;;;;;4969549;28;20038;-80
2022/10/05 10:51:05;;;;;;;2.42;1.40;;;20.50;99.90;;;;;;4970976;28;20105;-79
2022/10/05 10:54:01;;;;;;;2.85;1.60;;;20.20;99.90;;;;;;4968623;28;20198;-80
2022/10/05 10:56:36;;;;;;;2.78;1.50;;;20.10;99.90;;;;;;4972471;28;20043;-80
2022/10/05 10:59:22;;;;;;;2.30;1.77;;;19.90;99.90;;;;;;4965216;28;20518;-80
2022/10/05 11:02:30;;;;;;;4.03;1.90;;;19.70;99.90;;;;;;4982711;28;20057;-80
2022/10/05 11:05:18;;;;;;;2.88;1.67;;;19.70;99.90;;;;;;4968389;28;20045;-79
2022/10/05 11:08:11;;;;;;;3.35;2.00;;;19.60;99.90;;;;;;4982606;28;20027;-80
2022/10/05 11:11:05;;;;;;;3.22;2.03;;;19.60;99.90;;;;;;4967156;28;20042;-79
2022/10/05 11:13:51;;;;;;;2.67;1.60;;;19.60;99.90;;;;;;4982778;28;20609;-81
2022/10/05 11:17:01;;;;;;;3.42;1.67;;;19.60;99.90;;;;;;4969151;28;20537;-80
2022/10/05 11:19:59;;;;;;;3.63;1.63;;;19.50;99.90;;;;;;4952332;28;20129;-81
2022/10/05 11:22:40;;;;;;;2.50;1.17;;;19.50;99.90;;;;;;4968923;28;20026;-80
2022/10/05 11:25:27;;;;;;;2.50;1.45;;;19.50;99.90;;;;;;4982828;28;20030;-81
2022/10/05 11:28:15;;;;;;;2.90;1.42;;;19.50;99.90;;;;;;4965428;28;20377;-80
2022/10/05 11:31:07;;;;;;;3.72;2.00;;;19.50;99.90;;;;;;4968638;28;20089;-80
2022/10/05 11:33:33;;;;;;;2.05;1.30;;;19.60;99.90;;;;;;4968995;28;20033;-79
2022/10/05 11:36:38;;;;;;;2.03;1.25;;;19.50;99.90;;;;;;4967288;28;20023;-79
2022/10/05 11:39:10;;;;;;;3.97;1.60;;;19.60;99.90;;;;;;4985470;28;20578;-80
2022/10/05 11:42:05;;;;;;;2.55;1.30;;;19.60;99.90;;;;;;4967558;28;20034;-79
2022/10/05 11:45:05;;;;;;;5.85;2.00;;;19.60;99.90;;;;;;4968514;28;20109;-79
2022/10/05 11:47:45;;;;;;;5.03;1.75;;;19.70;99.90;;;;;;4983498;28;20039;-80
2022/10/05 11:50:26;;;;;;;4.88;1.98;;;19.80;99.90;;;;;;4983526;28;20045;-80
2022/10/05 11:53:07;;;;;;;5.70;2.03;;;19.80;99.90;;;;;;4982049;28;20027;-80
2022/10/05 11:55:42;;;;;;;2.67;1.50;;;19.90;99.90;;;;;;4983902;28;20070;-79
2022/10/05 11:58:43;;;;;;;3.55;1.80;;;19.90;99.90;;;;;;4968773;28;20027;-78
2022/10/05 12:01:36;;;;;;;2.63;1.55;;;20.10;99.90;;;;;;4957309;28;20070;-80
2022/10/05 12:04:21;;;;;;;1.92;1.20;;;20.30;99.90;;;;;;4981171;28;20023;-79
2022/10/05 12:07:06;;;;;;;1.60;1.15;;;20.30;99.90;;;;;;4970602;28;20035;-81
2022/10/05 12:10:16;;;;;;;3.92;1.75;;;20.20;99.90;;;;;;4981710;28;20022;-81
2022/10/05 12:13:19;;;;;;;2.20;1.40;;;20.10;99.90;;;;;;4976996;28;20038;-80
2022/10/05 12:16:23;;;;;;;4.35;1.30;;;20.20;99.90;;;;;;4996100;28;20033;-81
2022/10/05 12:19:28;;;;;;;6.30;1.80;;;20.40;99.90;;;;;;4994602;28;20015;-81
2022/10/05 12:22:08;;;;;;;3.53;1.70;;;20.80;99.90;;;;;;4995466;28;20039;-80
2022/10/05 12:24:34;;;;;;;5.68;1.80;;;21.00;99.90;;;;;;4970323;28;20067;-81
2022/10/05 12:27:19;;;;;;;2.90;1.90;;;21.10;99.90;;;;;;4970796;28;20435;-80
2022/10/05 12:30:11;;;;;;;3.60;1.50;;;21.40;99.90;;;;;;4974034;28;20038;-79
2022/10/05 12:32:40;;;;;;;2.30;1.30;;;21.60;99.90;;;;;;4945996;28;20042;-80
2022/10/05 12:35:16;;;;;;;1.80;1.10;;;21.60;99.90;;;;;;4973631;28;20585;-80
2022/10/05 12:37:51;;;;;;;2.10;1.17;;;21.90;99.90;;;;;;4979647;28;20057;-80
2022/10/05 12:40:38;;;;;;;2.28;1.20;;;22.50;99.90;;;;;;4969847;28;20038;-79
2022/10/05 12:43:31;;;;;;;2.58;1.30;;;23.20;99.90;;;;;;4965875;28;20046;-80
2022/10/05 12:46:02;;;;;;;2.53;1.50;;;23.70;99.90;;;;;;4954247;28;20031;-81
2022/10/05 12:48:59;;;;;;;2.88;1.15;;;23.70;99.90;;;;;;4976113;28;20386;-80
2022/10/05 12:51:43;;;;;;;4.15;1.63;;;23.50;99.90;;;;;;4967485;28;20058;-79
2022/10/05 12:54:40;;;;;;;2.03;1.15;;;23.40;99.90;;;;;;4970892;28;20031;-80
2022/10/05 12:57:34;;;;;;;3.65;1.10;;;23.20;99.90;;;;;;4972413;28;20614;-80
2022/10/05 13:00:13;;;;;;;3.03;1.17;;;23.30;99.90;;;;;;4983327;28;20473;-79
2022/10/05 13:02:46;;;;;;;3.30;1.15;;;23.10;99.90;;;;;;4965294;28;20022;-81
2022/10/05 13:05:43;;;;;;;2.30;1.20;;;23.20;99.90;;;;;;4967141;28;20058;-80
2022/10/05 13:08:34;;;;;;;3.65;1.20;;;23.00;99.90;;;;;;4971885;28;20045;-80
2022/10/05 13:11:15;;;;;;;2.08;1.23;;;22.90;99.90;;;;;;4955588;28;20039;-80
2022/10/05 13:14:06;;;;;;;2.25;1.00;;;22.90;99.90;;;;;;4967960;28;20033;-79
2022/10/05 13:16:46;;;;;;;2.63;1.00;;;22.60;99.90;;;;;;4969978;28;20588;-80
2022/10/05 13:19:43;;;;;;;2.63;1.27;;;22.30;99.90;;;;;;4971153;28;20430;-79
2022/10/05 13:22:26;;;;;;;1.35;0.90;;;22.00;99.90;;;;;;4962590;28;20034;-79
2022/10/05 13:25:07;;;;;;;2.42;1.27;;;22.10;99.90;;;;;;4984850;28;20483;-79
2022/10/05 13:27:48;;;;;;;3.47;1.30;;;22.70;99.90;;;;;;4968608;28;20046;-79
2022/10/05 13:30:20;;;;;;;1.77;1.10;;;23.20;99.90;;;;;;4969891;28;20078;-80
2022/10/05 13:33:02;;;;;;;2.28;0.95;;;23.60;99.90;;;;;;4970286;28;20786;-79
2022/10/05 13:35:56;;;;;;;2.20;1.20;;;23.70;99.90;;;;;;4967550;28;20035;-81
2022/10/05 13:38:37;;;;;;;2.63;0.90;;;23.80;99.90;;;;;;4982413;28;20031;-80
2022/10/05 13:41:35;;;;;;;2.58;1.20;;;23.40;99.90;;;;;;4972339;28;20114;-81
2022/10/05 13:44:17;;;;;;;1.48;0.80;;;22.90;99.90;;;;;;4959908;28;20039;-83
2022/10/05 13:47:15;;;;;;;1.92;1.17;;;22.60;99.90;;;;;;4970528;28;20061;-81
2022/10/05 13:49:59;;;;;;;1.73;1.13;;;22.60;99.90;;;;;;4961755;28;20570;-81
2022/10/05 13:52:46;;;;;;;1.48;1.02;;;22.40;99.90;;;;;;4968039;28;20046;-80
2022/10/05 13:55:50;;;;;;;3.28;0.93;;;22.40;99.90;;;;;;4970968;28;20064;-80
2022/10/05 13:58:50;;;;;;;2.55;0.82;;;22.70;99.90;;;;;;4970906;28;20033;-80
2022/10/05 14:01:46;;;;;;;1.60;0.90;;;23.50;99.90;;;;;;4962662;28;20069;-80
2022/10/05 14:04:23;;;;;;;1.30;0.75;;;23.60;99.90;;;;;;4972775;28;20030;-80
2022/10/05 14:06:54;;;;;;;5.25;1.10;;;23.30;99.90;;;;;;4976145;28;20019;-80
2022/10/05 14:09:32;;;;;;;1.77;1.10;;;23.30;99.90;;;;;;4994307;28;20065;-80
2022/10/05 14:12:13;;;;;;;2.72;1.00;;;23.60;99.90;;;;;;5002315;28;20019;-81
2022/10/05 14:15:11;;;;;;;2.58;0.95;;;23.60;99.90;;;;;;4977297;28;20129;-81
2022/10/05 14:17:44;;;;;;;1.60;0.90;;;23.20;99.90;;;;;;4982779;28;20121;-80
2022/10/05 14:20:22;;;;;;;4.15;1.25;;;22.90;99.90;;;;;;4967419;28;20072;-80
2022/10/05 14:23:23;;;;;;;3.03;1.27;;;22.80;99.90;;;;;;4986833;28;20189;-79